sensor_id;sensor_type;location;lat;lon;timestamp;P1;durP1;ratioP1;P2;durP2;ratioP2
211;SDS011;16228;48.800;9.002;2023-02-11T00:00:38;39.97;;;23.33;;
211;SDS011;16228;48.800;9.002;2023-02-11T00:03:05;47.73;;;26.10;;
211;SDS011;16228;48.800;9.002;2023-02-11T00:05:33;46.37;;;25.93;;
211;SDS011;16228;48.800;9.002;2023-02-11T00:08:00;44.70;;;26.03;;
211;SDS011;16228;48.800;9.002;2023-02-11T00:10:27;43.60;;;24.97;;
211;SDS011;16228;48.800;9.002;2023-02-11T00:12:55;41.93;;;25.10;;
211;SDS011;16228;48.800;9.002;2023-02-11T00:15:22;48.33;;;24.83;;
211;SDS011;16228;48.800;9.002;2023-02-11T00:17:49;47.23;;;26.37;;
211;SDS011;16228;48.800;9.002;2023-02-11T00:20:16;45.87;;;25.87;;
211;SDS011;16228;48.800;9.002;2023-02-11T00:22:43;44.40;;;27.03;;
211;SDS011;16228;48.800;9.002;2023-02-11T00:25:10;42.00;;;26.53;;
211;SDS011;16228;48.800;9.002;2023-02-11T00:27:37;42.40;;;25.00;;
211;SDS011;16228;48.800;9.002;2023-02-11T00:30:06;43.60;;;25.53;;
211;SDS011;16228;48.800;9.002;2023-02-11T00:32:33;43.47;;;24.27;;
211;SDS011;16228;48.800;9.002;2023-02-11T00:35:00;50.23;;;28.40;;
211;SDS011;16228;48.800;9.002;2023-02-11T00:37:27;50.03;;;29.30;;
211;SDS011;16228;48.800;9.002;2023-02-11T00:39:54;53.67;;;28.67;;
211;SDS011;16228;48.800;9.002;2023-02-11T00:42:21;47.70;;;26.23;;
211;SDS011;16228;48.800;9.002;2023-02-11T00:44:48;45.27;;;26.20;;
211;SDS011;16228;48.800;9.002;2023-02-11T00:47:16;44.40;;;25.70;;
211;SDS011;16228;48.800;9.002;2023-02-11T00:49:43;40.67;;;25.00;;
211;SDS011;16228;48.800;9.002;2023-02-11T00:52:10;38.70;;;22.90;;
211;SDS011;16228;48.800;9.002;2023-02-11T00:54:37;38.50;;;23.37;;
211;SDS011;16228;48.800;9.002;2023-02-11T00:57:04;43.23;;;25.53;;
211;SDS011;16228;48.800;9.002;2023-02-11T00:59:31;39.37;;;22.60;;
211;SDS011;16228;48.800;9.002;2023-02-11T01:01:58;44.60;;;25.03;;
211;SDS011;16228;48.800;9.002;2023-02-11T01:04:26;36.97;;;22.87;;
211;SDS011;16228;48.800;9.002;2023-02-11T01:06:53;41.73;;;25.67;;
211;SDS011;16228;48.800;9.002;2023-02-11T01:09:20;43.43;;;24.97;;
211;SDS011;16228;48.800;9.002;2023-02-11T01:11:47;41.80;;;24.63;;
211;SDS011;16228;48.800;9.002;2023-02-11T01:14:14;42.43;;;24.60;;
211;SDS011;16228;48.800;9.002;2023-02-11T01:16:41;37.83;;;23.30;;
211;SDS011;16228;48.800;9.002;2023-02-11T01:19:08;40.57;;;23.57;;
211;SDS011;16228;48.800;9.002;2023-02-11T01:21:36;43.97;;;24.07;;
211;SDS011;16228;48.800;9.002;2023-02-11T01:24:04;41.80;;;24.23;;
211;SDS011;16228;48.800;9.002;2023-02-11T01:26:31;41.43;;;24.23;;
211;SDS011;16228;48.800;9.002;2023-02-11T01:28:58;47.00;;;25.93;;
211;SDS011;16228;48.800;9.002;2023-02-11T01:31:25;46.90;;;25.43;;
211;SDS011;16228;48.800;9.002;2023-02-11T01:33:52;41.47;;;24.90;;
211;SDS011;16228;48.800;9.002;2023-02-11T01:36:19;41.30;;;23.50;;
211;SDS011;16228;48.800;9.002;2023-02-11T01:38:47;44.17;;;25.50;;
211;SDS011;16228;48.800;9.002;2023-02-11T01:41:14;51.50;;;27.37;;
211;SDS011;16228;48.800;9.002;2023-02-11T01:43:42;45.30;;;27.43;;
211;SDS011;16228;48.800;9.002;2023-02-11T01:46:23;51.10;;;27.37;;
211;SDS011;16228;48.800;9.002;2023-02-11T01:48:55;49.93;;;26.33;;
211;SDS011;16228;48.800;9.002;2023-02-11T01:51:27;39.27;;;23.63;;
211;SDS011;16228;48.800;9.002;2023-02-11T01:53:59;47.60;;;27.33;;
211;SDS011;16228;48.800;9.002;2023-02-11T01:56:47;47.77;;;27.60;;
211;SDS011;16228;48.800;9.002;2023-02-11T01:59:36;49.00;;;26.73;;
211;SDS011;16228;48.800;9.002;2023-02-11T02:02:07;55.07;;;29.47;;
211;SDS011;16228;48.800;9.002;2023-02-11T02:04:37;51.97;;;29.37;;
211;SDS011;16228;48.800;9.002;2023-02-11T02:07:10;50.23;;;30.53;;
211;SDS011;16228;48.800;9.002;2023-02-11T02:09:42;44.43;;;25.87;;
211;SDS011;16228;48.800;9.002;2023-02-11T02:12:14;46.20;;;27.80;;
211;SDS011;16228;48.800;9.002;2023-02-11T02:14:42;46.57;;;26.73;;
211;SDS011;16228;48.800;9.002;2023-02-11T02:17:09;49.77;;;26.70;;
211;SDS011;16228;48.800;9.002;2023-02-11T02:19:57;47.20;;;26.40;;
211;SDS011;16228;48.800;9.002;2023-02-11T02:23:04;47.17;;;27.63;;
211;SDS011;16228;48.800;9.002;2023-02-11T02:26:21;44.87;;;25.93;;
211;SDS011;16228;48.800;9.002;2023-02-11T02:29:17;45.00;;;25.67;;
211;SDS011;16228;48.800;9.002;2023-02-11T02:32:20;44.60;;;25.47;;
211;SDS011;16228;48.800;9.002;2023-02-11T02:34:56;43.17;;;26.10;;
211;SDS011;16228;48.800;9.002;2023-02-11T02:37:29;44.70;;;24.97;;
211;SDS011;16228;48.800;9.002;2023-02-11T02:40:00;40.03;;;24.17;;
211;SDS011;16228;48.800;9.002;2023-02-11T02:42:33;48.53;;;26.47;;
211;SDS011;16228;48.800;9.002;2023-02-11T02:45:00;45.90;;;26.43;;
211;SDS011;16228;48.800;9.002;2023-02-11T02:47:29;42.67;;;26.00;;
211;SDS011;16228;48.800;9.002;2023-02-11T02:49:56;39.83;;;24.50;;
211;SDS011;16228;48.800;9.002;2023-02-11T02:52:26;44.57;;;26.37;;
211;SDS011;16228;48.800;9.002;2023-02-11T02:55:15;42.87;;;24.23;;
211;SDS011;16228;48.800;9.002;2023-02-11T02:58:10;43.53;;;26.43;;
211;SDS011;16228;48.800;9.002;2023-02-11T03:00:51;42.60;;;24.27;;
211;SDS011;16228;48.800;9.002;2023-02-11T03:03:29;37.17;;;21.50;;
211;SDS011;16228;48.800;9.002;2023-02-11T03:06:03;42.70;;;23.70;;
211;SDS011;16228;48.800;9.002;2023-02-11T03:08:37;42.40;;;24.33;;
211;SDS011;16228;48.800;9.002;2023-02-11T03:11:07;35.67;;;22.80;;
211;SDS011;16228;48.800;9.002;2023-02-11T03:13:36;41.07;;;24.23;;
211;SDS011;16228;48.800;9.002;2023-02-11T03:16:07;45.73;;;26.70;;
211;SDS011;16228;48.800;9.002;2023-02-11T03:18:40;43.20;;;24.80;;
211;SDS011;16228;48.800;9.002;2023-02-11T03:21:11;46.30;;;25.00;;
211;SDS011;16228;48.800;9.002;2023-02-11T03:23:42;39.50;;;24.50;;
211;SDS011;16228;48.800;9.002;2023-02-11T03:26:16;38.30;;;23.00;;
211;SDS011;16228;48.800;9.002;2023-02-11T03:28:52;40.97;;;23.10;;
211;SDS011;16228;48.800;9.002;2023-02-11T03:31:25;44.47;;;25.40;;
211;SDS011;16228;48.800;9.002;2023-02-11T03:33:58;39.90;;;22.70;;
211;SDS011;16228;48.800;9.002;2023-02-11T03:36:31;39.20;;;24.03;;
211;SDS011;16228;48.800;9.002;2023-02-11T03:39:05;36.37;;;22.97;;
211;SDS011;16228;48.800;9.002;2023-02-11T03:41:34;39.00;;;22.70;;
211;SDS011;16228;48.800;9.002;2023-02-11T03:44:01;37.50;;;22.70;;
211;SDS011;16228;48.800;9.002;2023-02-11T03:46:32;38.77;;;24.03;;
211;SDS011;16228;48.800;9.002;2023-02-11T03:49:04;38.23;;;23.03;;
211;SDS011;16228;48.800;9.002;2023-02-11T03:51:35;37.30;;;21.57;;
211;SDS011;16228;48.800;9.002;2023-02-11T03:54:04;40.90;;;24.40;;
211;SDS011;16228;48.800;9.002;2023-02-11T03:56:38;33.77;;;21.10;;
211;SDS011;16228;48.800;9.002;2023-02-11T03:59:10;43.33;;;24.97;;
211;SDS011;16228;48.800;9.002;2023-02-11T04:01:37;37.67;;;22.80;;
211;SDS011;16228;48.800;9.002;2023-02-11T04:04:06;38.93;;;25.23;;
211;SDS011;16228;48.800;9.002;2023-02-11T04:06:33;41.13;;;23.90;;
211;SDS011;16228;48.800;9.002;2023-02-11T04:09:00;44.40;;;24.53;;
211;SDS011;16228;48.800;9.002;2023-02-11T04:11:27;37.60;;;24.37;;
211;SDS011;16228;48.800;9.002;2023-02-11T04:13:54;40.63;;;24.10;;
211;SDS011;16228;48.800;9.002;2023-02-11T04:16:21;34.10;;;21.57;;
211;SDS011;16228;48.800;9.002;2023-02-11T04:18:48;41.17;;;24.10;;
211;SDS011;16228;48.800;9.002;2023-02-11T04:21:16;37.77;;;22.43;;
211;SDS011;16228;48.800;9.002;2023-02-11T04:23:43;34.07;;;21.70;;
211;SDS011;16228;48.800;9.002;2023-02-11T04:26:10;36.40;;;23.27;;
211;SDS011;16228;48.800;9.002;2023-02-11T04:28:37;39.63;;;22.80;;
211;SDS011;16228;48.800;9.002;2023-02-11T04:31:04;33.63;;;21.40;;
211;SDS011;16228;48.800;9.002;2023-02-11T04:33:31;36.33;;;22.37;;
211;SDS011;16228;48.800;9.002;2023-02-11T04:35:58;41.43;;;24.27;;
211;SDS011;16228;48.800;9.002;2023-02-11T04:38:26;37.03;;;22.47;;
211;SDS011;16228;48.800;9.002;2023-02-11T04:40:53;33.10;;;20.60;;
211;SDS011;16228;48.800;9.002;2023-02-11T04:43:20;36.40;;;21.77;;
211;SDS011;16228;48.800;9.002;2023-02-11T04:45:47;35.03;;;21.63;;
211;SDS011;16228;48.800;9.002;2023-02-11T04:48:14;32.93;;;20.67;;
211;SDS011;16228;48.800;9.002;2023-02-11T04:50:41;32.93;;;20.73;;
211;SDS011;16228;48.800;9.002;2023-02-11T04:53:08;41.13;;;23.87;;
211;SDS011;16228;48.800;9.002;2023-02-11T04:55:36;32.93;;;21.07;;
211;SDS011;16228;48.800;9.002;2023-02-11T04:58:03;32.10;;;19.40;;
211;SDS011;16228;48.800;9.002;2023-02-11T05:00:30;35.93;;;21.57;;
211;SDS011;16228;48.800;9.002;2023-02-11T05:02:57;30.57;;;19.63;;
211;SDS011;16228;48.800;9.002;2023-02-11T05:05:24;33.43;;;20.80;;
211;SDS011;16228;48.800;9.002;2023-02-11T05:07:51;32.73;;;20.77;;
211;SDS011;16228;48.800;9.002;2023-02-11T05:10:18;32.83;;;20.77;;
211;SDS011;16228;48.800;9.002;2023-02-11T05:12:47;31.67;;;20.60;;
211;SDS011;16228;48.800;9.002;2023-02-11T05:15:14;30.83;;;18.57;;
211;SDS011;16228;48.800;9.002;2023-02-11T05:17:42;32.80;;;19.67;;
211;SDS011;16228;48.800;9.002;2023-02-11T05:20:09;30.63;;;19.07;;
211;SDS011;16228;48.800;9.002;2023-02-11T05:22:36;28.60;;;18.70;;
211;SDS011;16228;48.800;9.002;2023-02-11T05:25:03;27.80;;;18.20;;
211;SDS011;16228;48.800;9.002;2023-02-11T05:27:31;30.40;;;19.17;;
211;SDS011;16228;48.800;9.002;2023-02-11T05:29:59;29.37;;;19.77;;
211;SDS011;16228;48.800;9.002;2023-02-11T05:32:26;35.70;;;22.50;;
211;SDS011;16228;48.800;9.002;2023-02-11T05:34:53;35.90;;;20.80;;
211;SDS011;16228;48.800;9.002;2023-02-11T05:37:20;29.50;;;18.10;;
211;SDS011;16228;48.800;9.002;2023-02-11T05:39:47;33.27;;;20.23;;
211;SDS011;16228;48.800;9.002;2023-02-11T05:42:14;34.50;;;19.93;;
211;SDS011;16228;48.800;9.002;2023-02-11T05:44:41;33.63;;;21.43;;
211;SDS011;16228;48.800;9.002;2023-02-11T05:47:09;32.00;;;19.60;;
211;SDS011;16228;48.800;9.002;2023-02-11T05:49:36;30.07;;;19.37;;
211;SDS011;16228;48.800;9.002;2023-02-11T05:52:03;34.20;;;20.70;;
211;SDS011;16228;48.800;9.002;2023-02-11T05:54:30;28.30;;;18.97;;
211;SDS011;16228;48.800;9.002;2023-02-11T05:56:57;35.07;;;20.57;;
211;SDS011;16228;48.800;9.002;2023-02-11T05:59:24;29.97;;;19.27;;
211;SDS011;16228;48.800;9.002;2023-02-11T06:01:51;27.63;;;18.67;;
211;SDS011;16228;48.800;9.002;2023-02-11T06:04:19;35.40;;;19.70;;
211;SDS011;16228;48.800;9.002;2023-02-11T06:06:47;36.50;;;20.57;;
211;SDS011;16228;48.800;9.002;2023-02-11T06:09:14;31.50;;;20.10;;
211;SDS011;16228;48.800;9.002;2023-02-11T06:11:41;30.87;;;19.03;;
211;SDS011;16228;48.800;9.002;2023-02-11T06:14:08;31.30;;;20.17;;
211;SDS011;16228;48.800;9.002;2023-02-11T06:16:35;27.77;;;18.40;;
211;SDS011;16228;48.800;9.002;2023-02-11T06:19:02;27.93;;;18.97;;
211;SDS011;16228;48.800;9.002;2023-02-11T06:21:30;30.47;;;18.53;;
211;SDS011;16228;48.800;9.002;2023-02-11T06:23:57;28.97;;;19.57;;
211;SDS011;16228;48.800;9.002;2023-02-11T06:26:24;28.00;;;17.47;;
211;SDS011;16228;48.800;9.002;2023-02-11T06:28:51;28.90;;;18.53;;
211;SDS011;16228;48.800;9.002;2023-02-11T06:31:18;25.70;;;16.73;;
211;SDS011;16228;48.800;9.002;2023-02-11T06:33:45;29.17;;;19.37;;
211;SDS011;16228;48.800;9.002;2023-02-11T06:36:17;28.37;;;19.27;;
211;SDS011;16228;48.800;9.002;2023-02-11T06:38:47;23.30;;;16.57;;
211;SDS011;16228;48.800;9.002;2023-02-11T06:41:15;25.33;;;17.00;;
211;SDS011;16228;48.800;9.002;2023-02-11T06:43:44;26.23;;;18.10;;
211;SDS011;16228;48.800;9.002;2023-02-11T06:46:11;27.10;;;18.00;;
211;SDS011;16228;48.800;9.002;2023-02-11T06:48:38;29.40;;;18.37;;
211;SDS011;16228;48.800;9.002;2023-02-11T06:51:06;26.10;;;17.03;;
211;SDS011;16228;48.800;9.002;2023-02-11T06:53:36;25.83;;;17.73;;
211;SDS011;16228;48.800;9.002;2023-02-11T06:56:06;27.43;;;17.30;;
211;SDS011;16228;48.800;9.002;2023-02-11T06:58:35;25.53;;;17.67;;
211;SDS011;16228;48.800;9.002;2023-02-11T07:01:03;26.87;;;18.67;;
211;SDS011;16228;48.800;9.002;2023-02-11T07:03:31;25.87;;;18.07;;
211;SDS011;16228;48.800;9.002;2023-02-11T07:06:00;25.03;;;17.70;;
211;SDS011;16228;48.800;9.002;2023-02-11T07:08:27;24.20;;;16.47;;
211;SDS011;16228;48.800;9.002;2023-02-11T07:10:54;25.63;;;17.03;;
211;SDS011;16228;48.800;9.002;2023-02-11T07:13:22;25.53;;;17.63;;
211;SDS011;16228;48.800;9.002;2023-02-11T07:15:49;26.40;;;18.07;;
211;SDS011;16228;48.800;9.002;2023-02-11T07:18:16;20.00;;;15.20;;
211;SDS011;16228;48.800;9.002;2023-02-11T07:20:43;22.90;;;15.50;;
211;SDS011;16228;48.800;9.002;2023-02-11T07:23:10;25.87;;;18.17;;
211;SDS011;16228;48.800;9.002;2023-02-11T07:25:37;25.77;;;17.83;;
211;SDS011;16228;48.800;9.002;2023-02-11T07:28:04;25.50;;;16.17;;
211;SDS011;16228;48.800;9.002;2023-02-11T07:30:32;21.87;;;16.20;;
211;SDS011;16228;48.800;9.002;2023-02-11T07:32:59;25.90;;;17.53;;
211;SDS011;16228;48.800;9.002;2023-02-11T07:35:26;22.57;;;16.80;;
211;SDS011;16228;48.800;9.002;2023-02-11T07:37:53;24.47;;;16.53;;
211;SDS011;16228;48.800;9.002;2023-02-11T07:40:20;26.60;;;18.43;;
211;SDS011;16228;48.800;9.002;2023-02-11T07:42:47;26.97;;;17.93;;
211;SDS011;16228;48.800;9.002;2023-02-11T07:45:14;26.83;;;18.73;;
211;SDS011;16228;48.800;9.002;2023-02-11T07:47:43;24.20;;;16.70;;
211;SDS011;16228;48.800;9.002;2023-02-11T07:50:09;28.07;;;17.73;;
211;SDS011;16228;48.800;9.002;2023-02-11T07:52:36;26.90;;;17.63;;
211;SDS011;16228;48.800;9.002;2023-02-11T07:55:04;26.27;;;18.33;;
211;SDS011;16228;48.800;9.002;2023-02-11T07:57:31;24.40;;;16.07;;
211;SDS011;16228;48.800;9.002;2023-02-11T07:59:58;23.77;;;17.83;;
211;SDS011;16228;48.800;9.002;2023-02-11T08:02:25;25.23;;;17.57;;
211;SDS011;16228;48.800;9.002;2023-02-11T08:04:53;29.67;;;18.37;;
211;SDS011;16228;48.800;9.002;2023-02-11T08:07:20;23.07;;;17.13;;
211;SDS011;16228;48.800;9.002;2023-02-11T08:09:47;23.53;;;17.07;;
211;SDS011;16228;48.800;9.002;2023-02-11T08:12:14;19.90;;;14.90;;
211;SDS011;16228;48.800;9.002;2023-02-11T08:14:41;22.30;;;15.50;;
211;SDS011;16228;48.800;9.002;2023-02-11T08:17:08;22.10;;;15.87;;
211;SDS011;16228;48.800;9.002;2023-02-11T08:19:35;23.23;;;16.20;;
211;SDS011;16228;48.800;9.002;2023-02-11T08:22:03;18.87;;;13.87;;
211;SDS011;16228;48.800;9.002;2023-02-11T08:24:30;20.27;;;14.20;;
211;SDS011;16228;48.800;9.002;2023-02-11T08:26:57;17.63;;;13.93;;
211;SDS011;16228;48.800;9.002;2023-02-11T08:29:24;17.90;;;13.30;;
211;SDS011;16228;48.800;9.002;2023-02-11T08:31:51;21.00;;;15.63;;
211;SDS011;16228;48.800;9.002;2023-02-11T08:34:18;16.50;;;12.37;;
211;SDS011;16228;48.800;9.002;2023-02-11T08:36:46;20.77;;;13.77;;
211;SDS011;16228;48.800;9.002;2023-02-11T08:39:15;16.20;;;12.33;;
211;SDS011;16228;48.800;9.002;2023-02-11T08:41:44;17.37;;;12.80;;
211;SDS011;16228;48.800;9.002;2023-02-11T08:44:12;16.60;;;12.23;;
211;SDS011;16228;48.800;9.002;2023-02-11T08:46:39;17.67;;;12.13;;
211;SDS011;16228;48.800;9.002;2023-02-11T08:49:06;16.90;;;12.23;;
211;SDS011;16228;48.800;9.002;2023-02-11T08:51:33;14.00;;;11.13;;
211;SDS011;16228;48.800;9.002;2023-02-11T08:54:00;14.50;;;11.43;;
211;SDS011;16228;48.800;9.002;2023-02-11T08:56:29;18.73;;;11.40;;
211;SDS011;16228;48.800;9.002;2023-02-11T08:58:57;15.60;;;11.47;;
211;SDS011;16228;48.800;9.002;2023-02-11T09:01:24;15.57;;;11.43;;
211;SDS011;16228;48.800;9.002;2023-02-11T09:03:52;17.50;;;10.83;;
211;SDS011;16228;48.800;9.002;2023-02-11T09:06:20;12.10;;;10.33;;
211;SDS011;16228;48.800;9.002;2023-02-11T09:08:49;12.37;;;9.83;;
211;SDS011;16228;48.800;9.002;2023-02-11T09:11:18;12.30;;;9.43;;
211;SDS011;16228;48.800;9.002;2023-02-11T09:13:48;13.37;;;9.70;;
211;SDS011;16228;48.800;9.002;2023-02-11T09:16:17;12.43;;;8.47;;
211;SDS011;16228;48.800;9.002;2023-02-11T09:18:46;11.53;;;8.67;;
211;SDS011;16228;48.800;9.002;2023-02-11T09:21:13;10.43;;;8.70;;
211;SDS011;16228;48.800;9.002;2023-02-11T09:23:41;13.30;;;9.60;;
211;SDS011;16228;48.800;9.002;2023-02-11T09:26:10;13.27;;;9.40;;
211;SDS011;16228;48.800;9.002;2023-02-11T09:28:40;12.77;;;9.63;;
211;SDS011;16228;48.800;9.002;2023-02-11T09:31:09;13.00;;;9.70;;
211;SDS011;16228;48.800;9.002;2023-02-11T09:33:37;11.83;;;9.30;;
211;SDS011;16228;48.800;9.002;2023-02-11T09:36:06;13.23;;;9.47;;
211;SDS011;16228;48.800;9.002;2023-02-11T09:38:34;12.30;;;9.17;;
211;SDS011;16228;48.800;9.002;2023-02-11T09:41:01;12.23;;;9.10;;
211;SDS011;16228;48.800;9.002;2023-02-11T09:43:32;9.90;;;7.43;;
211;SDS011;16228;48.800;9.002;2023-02-11T09:46:03;13.07;;;8.47;;
211;SDS011;16228;48.800;9.002;2023-02-11T09:48:34;11.63;;;7.67;;
211;SDS011;16228;48.800;9.002;2023-02-11T09:51:04;8.43;;;6.93;;
211;SDS011;16228;48.800;9.002;2023-02-11T09:53:38;11.60;;;7.87;;
211;SDS011;16228;48.800;9.002;2023-02-11T09:56:09;7.73;;;6.90;;
211;SDS011;16228;48.800;9.002;2023-02-11T09:58:38;9.73;;;6.80;;
211;SDS011;16228;48.800;9.002;2023-02-11T10:01:07;9.77;;;7.80;;
211;SDS011;16228;48.800;9.002;2023-02-11T10:03:52;7.50;;;6.30;;
211;SDS011;16228;48.800;9.002;2023-02-11T10:06:37;7.70;;;5.83;;
211;SDS011;16228;48.800;9.002;2023-02-11T10:12:10;7.97;;;6.30;;
211;SDS011;16228;48.800;9.002;2023-02-11T10:14:49;7.40;;;6.53;;
211;SDS011;16228;48.800;9.002;2023-02-11T10:17:29;7.50;;;6.03;;
211;SDS011;16228;48.800;9.002;2023-02-11T10:20:11;7.03;;;6.30;;
211;SDS011;16228;48.800;9.002;2023-02-11T10:22:46;7.03;;;6.30;;
211;SDS011;16228;48.800;9.002;2023-02-11T10:25:20;7.27;;;6.03;;
211;SDS011;16228;48.800;9.002;2023-02-11T10:27:48;5.63;;;5.03;;
211;SDS011;16228;48.800;9.002;2023-02-11T10:30:20;6.77;;;5.40;;
211;SDS011;16228;48.800;9.002;2023-02-11T10:32:53;7.70;;;6.80;;
211;SDS011;16228;48.800;9.002;2023-02-11T10:35:26;8.40;;;7.53;;
211;SDS011;16228;48.800;9.002;2023-02-11T10:37:53;5.03;;;4.43;;
211;SDS011;16228;48.800;9.002;2023-02-11T10:40:21;5.53;;;4.97;;
211;SDS011;16228;48.800;9.002;2023-02-11T10:42:50;5.73;;;4.50;;
211;SDS011;16228;48.800;9.002;2023-02-11T10:45:21;6.43;;;4.20;;
211;SDS011;16228;48.800;9.002;2023-02-11T10:47:51;6.37;;;4.57;;
211;SDS011;16228;48.800;9.002;2023-02-11T10:50:21;4.40;;;4.00;;
211;SDS011;16228;48.800;9.002;2023-02-11T10:52:50;5.53;;;4.50;;
211;SDS011;16228;48.800;9.002;2023-02-11T10:55:18;5.00;;;3.90;;
211;SDS011;16228;48.800;9.002;2023-02-11T10:57:52;4.50;;;4.10;;
211;SDS011;16228;48.800;9.002;2023-02-11T11:00:34;6.20;;;4.17;;
211;SDS011;16228;48.800;9.002;2023-02-11T11:03:04;5.50;;;4.10;;
211;SDS011;16228;48.800;9.002;2023-02-11T11:05:44;4.93;;;4.43;;
211;SDS011;16228;48.800;9.002;2023-02-11T11:08:15;5.43;;;4.37;;
211;SDS011;16228;48.800;9.002;2023-02-11T11:10:44;5.13;;;4.30;;
211;SDS011;16228;48.800;9.002;2023-02-11T11:13:22;4.93;;;3.97;;
211;SDS011;16228;48.800;9.002;2023-02-11T11:16:06;4.53;;;3.87;;
211;SDS011;16228;48.800;9.002;2023-02-11T11:18:34;5.07;;;3.93;;
211;SDS011;16228;48.800;9.002;2023-02-11T11:21:02;5.20;;;4.20;;
211;SDS011;16228;48.800;9.002;2023-02-11T11:23:33;4.57;;;4.13;;
211;SDS011;16228;48.800;9.002;2023-02-11T11:26:03;5.07;;;3.73;;
211;SDS011;16228;48.800;9.002;2023-02-11T11:28:33;4.93;;;4.00;;
211;SDS011;16228;48.800;9.002;2023-02-11T11:31:04;7.43;;;5.83;;
211;SDS011;16228;48.800;9.002;2023-02-11T11:33:40;5.67;;;4.57;;
211;SDS011;16228;48.800;9.002;2023-02-11T11:36:09;4.07;;;3.67;;
211;SDS011;16228;48.800;9.002;2023-02-11T11:38:43;4.50;;;3.67;;
211;SDS011;16228;48.800;9.002;2023-02-11T11:41:14;5.93;;;4.00;;
211;SDS011;16228;48.800;9.002;2023-02-11T11:43:55;4.80;;;3.60;;
211;SDS011;16228;48.800;9.002;2023-02-11T11:46:25;3.87;;;3.53;;
211;SDS011;16228;48.800;9.002;2023-02-11T11:48:55;4.97;;;3.60;;
211;SDS011;16228;48.800;9.002;2023-02-11T11:51:28;4.30;;;2.83;;
211;SDS011;16228;48.800;9.002;2023-02-11T11:53:59;4.73;;;3.30;;
211;SDS011;16228;48.800;9.002;2023-02-11T11:56:30;6.57;;;4.70;;
211;SDS011;16228;48.800;9.002;2023-02-11T11:58:59;5.23;;;4.10;;
211;SDS011;16228;48.800;9.002;2023-02-11T12:01:33;3.70;;;3.00;;
211;SDS011;16228;48.800;9.002;2023-02-11T12:04:26;3.63;;;3.20;;
211;SDS011;16228;48.800;9.002;2023-02-11T12:07:13;11.00;;;7.03;;
211;SDS011;16228;48.800;9.002;2023-02-11T12:09:55;5.60;;;3.83;;
211;SDS011;16228;48.800;9.002;2023-02-11T12:12:37;4.27;;;3.33;;
211;SDS011;16228;48.800;9.002;2023-02-11T12:15:13;4.23;;;3.60;;
211;SDS011;16228;48.800;9.002;2023-02-11T12:17:53;6.47;;;3.60;;
211;SDS011;16228;48.800;9.002;2023-02-11T12:20:35;4.17;;;3.77;;
211;SDS011;16228;48.800;9.002;2023-02-11T12:23:13;5.23;;;4.10;;
211;SDS011;16228;48.800;9.002;2023-02-11T12:25:52;4.60;;;3.67;;
211;SDS011;16228;48.800;9.002;2023-02-11T12:28:28;5.07;;;4.37;;
211;SDS011;16228;48.800;9.002;2023-02-11T12:31:06;6.07;;;4.53;;
211;SDS011;16228;48.800;9.002;2023-02-11T12:33:51;5.33;;;4.60;;
211;SDS011;16228;48.800;9.002;2023-02-11T12:36:28;8.07;;;5.17;;
211;SDS011;16228;48.800;9.002;2023-02-11T12:39:08;6.37;;;5.00;;
211;SDS011;16228;48.800;9.002;2023-02-11T12:41:51;7.20;;;5.83;;
211;SDS011;16228;48.800;9.002;2023-02-11T12:44:50;7.17;;;5.97;;
211;SDS011;16228;48.800;9.002;2023-02-11T12:47:31;6.87;;;5.13;;
211;SDS011;16228;48.800;9.002;2023-02-11T12:50:07;7.80;;;5.87;;
211;SDS011;16228;48.800;9.002;2023-02-11T12:52:55;6.90;;;6.00;;
211;SDS011;16228;48.800;9.002;2023-02-11T12:55:37;7.10;;;6.30;;
211;SDS011;16228;48.800;9.002;2023-02-11T12:58:11;8.30;;;6.57;;
211;SDS011;16228;48.800;9.002;2023-02-11T13:00:43;8.20;;;6.40;;
211;SDS011;16228;48.800;9.002;2023-02-11T13:03:14;6.27;;;5.67;;
211;SDS011;16228;48.800;9.002;2023-02-11T13:05:47;10.57;;;7.00;;
211;SDS011;16228;48.800;9.002;2023-02-11T13:08:18;8.40;;;6.53;;
211;SDS011;16228;48.800;9.002;2023-02-11T13:10:51;8.37;;;6.80;;
211;SDS011;16228;48.800;9.002;2023-02-11T13:13:23;10.00;;;7.43;;
211;SDS011;16228;48.800;9.002;2023-02-11T13:15:53;9.07;;;7.20;;
211;SDS011;16228;48.800;9.002;2023-02-11T13:18:27;8.83;;;7.17;;
211;SDS011;16228;48.800;9.002;2023-02-11T13:21:06;9.17;;;7.10;;
211;SDS011;16228;48.800;9.002;2023-02-11T13:23:48;9.30;;;7.20;;
211;SDS011;16228;48.800;9.002;2023-02-11T13:26:23;11.27;;;8.37;;
211;SDS011;16228;48.800;9.002;2023-02-11T13:29:04;11.37;;;8.60;;
211;SDS011;16228;48.800;9.002;2023-02-11T13:31:39;10.13;;;8.50;;
211;SDS011;16228;48.800;9.002;2023-02-11T13:34:19;11.13;;;8.53;;
211;SDS011;16228;48.800;9.002;2023-02-11T13:36:53;9.70;;;8.60;;
211;SDS011;16228;48.800;9.002;2023-02-11T13:39:21;11.07;;;9.23;;
211;SDS011;16228;48.800;9.002;2023-02-11T13:41:48;14.43;;;10.53;;
211;SDS011;16228;48.800;9.002;2023-02-11T13:44:26;12.43;;;9.83;;
211;SDS011;16228;48.800;9.002;2023-02-11T13:46:57;12.97;;;10.30;;
211;SDS011;16228;48.800;9.002;2023-02-11T13:49:29;12.10;;;10.23;;
211;SDS011;16228;48.800;9.002;2023-02-11T13:51:58;15.60;;;10.73;;
211;SDS011;16228;48.800;9.002;2023-02-11T13:54:28;17.07;;;11.97;;
211;SDS011;16228;48.800;9.002;2023-02-11T13:59:57;15.90;;;11.57;;
211;SDS011;16228;48.800;9.002;2023-02-11T14:02:30;16.20;;;12.23;;
211;SDS011;16228;48.800;9.002;2023-02-11T14:05:20;15.50;;;11.93;;
211;SDS011;16228;48.800;9.002;2023-02-11T14:08:24;15.50;;;10.90;;
211;SDS011;16228;48.800;9.002;2023-02-11T14:14:14;12.63;;;9.53;;
211;SDS011;16228;48.800;9.002;2023-02-11T14:19:49;14.93;;;11.20;;
211;SDS011;16228;48.800;9.002;2023-02-11T14:22:18;12.33;;;10.33;;
211;SDS011;16228;48.800;9.002;2023-02-11T14:24:51;13.93;;;10.40;;
211;SDS011;16228;48.800;9.002;2023-02-11T14:27:23;11.13;;;9.30;;
211;SDS011;16228;48.800;9.002;2023-02-11T14:32:52;13.30;;;9.47;;
211;SDS011;16228;48.800;9.002;2023-02-11T14:35:40;12.07;;;9.60;;
211;SDS011;16228;48.800;9.002;2023-02-11T14:38:17;11.63;;;9.30;;
211;SDS011;16228;48.800;9.002;2023-02-11T14:40:52;11.73;;;9.63;;
211;SDS011;16228;48.800;9.002;2023-02-11T14:43:24;10.47;;;9.23;;
211;SDS011;16228;48.800;9.002;2023-02-11T14:45:54;12.07;;;9.67;;
211;SDS011;16228;48.800;9.002;2023-02-11T14:48:25;12.20;;;8.73;;
211;SDS011;16228;48.800;9.002;2023-02-11T14:50:59;11.73;;;9.53;;
211;SDS011;16228;48.800;9.002;2023-02-11T14:53:29;9.57;;;8.07;;
211;SDS011;16228;48.800;9.002;2023-02-11T14:55:58;11.53;;;8.77;;
211;SDS011;16228;48.800;9.002;2023-02-11T14:58:25;12.60;;;8.77;;
211;SDS011;16228;48.800;9.002;2023-02-11T15:00:54;15.20;;;11.33;;
211;SDS011;16228;48.800;9.002;2023-02-11T15:03:24;13.67;;;10.53;;
211;SDS011;16228;48.800;9.002;2023-02-11T15:05:56;14.13;;;10.73;;
211;SDS011;16228;48.800;9.002;2023-02-11T15:08:26;14.07;;;10.23;;
211;SDS011;16228;48.800;9.002;2023-02-11T15:10:55;15.10;;;10.90;;
211;SDS011;16228;48.800;9.002;2023-02-11T15:13:23;16.17;;;11.43;;
211;SDS011;16228;48.800;9.002;2023-02-11T15:15:56;14.93;;;11.13;;
211;SDS011;16228;48.800;9.002;2023-02-11T15:18:31;15.33;;;10.57;;
211;SDS011;16228;48.800;9.002;2023-02-11T15:21:02;11.57;;;9.67;;
211;SDS011;16228;48.800;9.002;2023-02-11T15:23:30;13.03;;;10.20;;
211;SDS011;16228;48.800;9.002;2023-02-11T15:25:58;14.03;;;11.03;;
211;SDS011;16228;48.800;9.002;2023-02-11T15:28:30;12.73;;;10.37;;
211;SDS011;16228;48.800;9.002;2023-02-11T15:30:59;12.73;;;9.63;;
211;SDS011;16228;48.800;9.002;2023-02-11T15:33:27;12.83;;;10.03;;